Weather observations for the past three days for
Seminole, Gaines County Airport
Metric (Imperial)
Date Time (cdt) Wind (kph) Vis. (km) Weather Sky Cond. Temperature (ºC) Relative Humidity Wind Chill (°C) Heat Index (°C) Pressure Precipitation (cm)
Air Dwpt 6 hour altimeter (cm) sea level (mb) 1 hr 3 hr 6 hr
Max. Min.
04 11:55 W 17 16.09 Fair CLR 28.2 8.5 29% 27 76.05 0.0
04 11:35 W 15 16.09 Fair CLR 27.2 8.5 31% 27 76.05 0.0
04 11:15 W 17 16.09 Fair CLR 26.4 9.6 35% 26 76.05 0.0
04 10:55 SW 15 G 26 16.09 Fair CLR 24.8 10.2 40% 26 76.05 0.0
04 10:35 SW 17 16.09 Fair CLR 23.4 10.6 45% 76.07 0.0
04 10:15 SW 19 16.09 Fair CLR 22.1 10.6 48% 76.1 0.0
04 09:55 SW 15 16.09 Fair CLR 20.8 10.8 53% 76.1 0.0
04 09:35 SW 17 16.09 Fair CLR 19.3 10.5 57% 76.1 0.0
04 09:15 SW 19 16.09 Fair CLR 18.7 10.7 60% 76.1 0.0
04 08:55 SW 20 16.09 Fair CLR 17.3 10.6 65% 76.05 0.0
04 08:35 SW 15 16.09 Fair CLR 16 10.5 70% 76.07 0.0
04 08:15 SW 17 16.09 Fair CLR 14.9 10.3 74% 76.05 0.0
04 07:55 SW 13 16.09 Fair CLR 14.2 10.2 77% 76.05 0.0
04 07:35 SW 11 16.09 Fair CLR 13.6 10.2 80% 76.02 0.0
04 07:15 SW 9 16.09 Fair CLR 13.5 10.1 80% 76 0.0
04 06:55 SW 11 16.09 Fair CLR 13.7 10 16.8 13.5 79% 75.97 0.0
04 06:35 SW 13 16.09 Fair CLR 13.7 10 79% 75.97 0.0
04 06:15 SW 9 16.09 Fair CLR 13.5 10 80% 75.97 0.0
04 05:55 SW 9 16.09 Fair CLR 13.5 10.1 80% 76 0.0
04 05:35 SW 9 16.09 Fair CLR 14 10 77% 76 0.0
04 05:15 SW 11 16.09 Fair CLR 14.5 9.8 74% 76 0.0
04 04:55 SW 11 16.09 Fair CLR 14.7 9.8 73% 76.02 0.0
04 04:15 SW 15 16.09 Fair CLR 15.1 9.9 71% 76.05 0.0
04 03:55 SW 13 16.09 Fair CLR 15 9.9 72% 76.07 0.0
04 03:35 SW 11 16.09 Fair CLR 15.2 9.7 70% 76.07 0.0
04 03:15 SW 13 16.09 Fair CLR 15.5 9.7 69% 76.1 0.0
04 02:55 SW 13 16.09 Fair CLR 15.6 9.6 68% 76.1 0.0
04 02:35 SW 11 16.09 Fair CLR 15.9 9.6 66% 76.15 0.0
04 02:15 S 11 16.09 Fair CLR 16.1 9.5 65% 76.15 0.0
04 01:55 S 11 16.09 Fair CLR 16.3 9.5 64% 76.2 0.0
04 01:35 S 9 16.09 Fair CLR 16.2 9.2 63% 76.2 0.0
04 01:15 S 9 16.09 Fair CLR 16.5 9.1 62% 76.23 0.0
04 00:55 S 9 16.09 Fair CLR 16.9 9 24 16.9 60% 76.23 0.0
04 00:35 S 13 16.09 Fair CLR 17.3 9 58% 76.23 0.0
04 00:15 S 13 16.09 Fair CLR 17.5 8.9 57% 76.23 0.0
03 23:55 S 17 16.09 Fair CLR 17.8 8.8 56% 76.23 0.0
03 23:35 S 13 16.09 Fair CLR 17.8 8.9 56% 76.25 0.0
03 23:15 S 13 16.09 Fair CLR 18.1 8.7 54% 76.25 0.0
03 22:55 S 15 16.09 Fair CLR 18.6 8.4 52% 76.25 0.0
03 22:35 S 15 16.09 Fair CLR 18.5 8.5 52% 76.25 0.0
03 22:15 S 11 16.09 Fair CLR 18.9 8.2 50% 76.25 0.0
03 21:55 S 11 16.09 Fair CLR 19.5 8 48% 76.25 0.0
03 21:35 S 13 16.09 Fair CLR 19.5 8 48% 76.23 0.0
03 21:15 S 9 16.09 Fair CLR 20 7.7 45% 76.23 0.0
03 20:55 S 7 16.09 Fair CLR 20.8 7.2 42% 76.23 0.0
03 20:35 S 9 16.09 Fair CLR 21.7 6.8 38% 76.23 0.0
03 20:15 S 11 16.09 Fair CLR 22.6 6.4 35% 76.23 0.0
03 19:55 S 13 16.09 Fair CLR 23 6 33% 76.23 0.0
03 19:35 SW 17 16.09 Fair CLR 23.4 5.8 32% 76.25 0.0
03 19:15 S 17 16.09 Fair CLR 24 6.2 32% 25 76.25 0.0
03 18:55 S 17 16.09 Fair CLR 23.9 6.2 24.6 21.5 32% 25 76.28 0.0
03 18:35 SW 17 G 26 16.09 Fair CLR 23.7 6 32% 76.28 0.0
03 18:15 SW 19 G 28 16.09 Fair CLR 23.7 6 32% 76.28 0.0
03 17:55 SW 22 16.09 Fair CLR 24 6.1 32% 25 76.33 0.0
03 17:35 SW 17 G 26 16.09 Fair CLR 24.1 5.8 31% 25 76.33 0.0
03 17:15 SW 15 G 26 16.09 Fair CLR 24.4 5.2 29% 25 76.33 0.0
03 16:55 S 19 G 31 16.09 Fair CLR 24 6.3 32% 25 76.33 0.0
03 16:35 SW 13 G 26 16.09 Fair CLR 24.3 6.2 31% 25 76.38 0.0
03 16:15 S 13 G 20 16.09 Fair CLR 24 6 31% 25 76.4 0.0
03 15:55 SW 11 G 26 16.09 Fair CLR 24 6.2 32% 25 76.45 0.0
03 15:35 S 24 G 31 16.09 Fair CLR 23.6 6.1 32% 76.48 0.0
03 15:15 S 22 G 28 16.09 Fair CLR 23.1 6.3 34% 76.5 0.0
03 14:55 S 19 G 30 16.09 Fair CLR 23.6 6.6 34% 76.53 0.0
03 14:35 S 15 G 26 16.09 Fair CLR 22.8 6.3 35% 76.56 0.0
03 14:15 S 19 G 28 16.09 Fair CLR 23.1 6.3 34% 76.58 0.0
03 13:35 S 17 G 26 16.09 Fair CLR 22.4 6.6 36% 76.63 0.0
03 13:15 S 19 16.09 Fair CLR 21.7 6.4 37% 76.68 0.0
03 12:55 S 17 16.09 Fair CLR 21.3 6.3 21.3 10.5 38% 76.68 0.0
03 12:35 S 19 16.09 Fair CLR 20.7 6.4 40% 76.73 0.0
03 12:15 S 17 16.09 Fair CLR 21 7 40% 76.73 0.0
03 11:55 S 20 16.09 Fair CLR 20.5 7.1 42% 76.76 0.0
03 11:35 S 19 16.09 Fair CLR 19.7 7.3 45% 76.78 0.0
03 11:15 S 19 G 28 16.09 Fair CLR 19.3 7.7 47% 76.78 0.0
03 10:55 S 19 G 26 16.09 Fair CLR 18.9 7.9 49% 76.81 0.0
03 10:35 S 22 16.09 Fair CLR 18.2 8.2 52% 76.81 0.0
03 10:15 S 17 16.09 Fair CLR 17.6 8.3 55% 76.81 0.0
03 09:55 S 19 G 28 16.09 Fair CLR 17.1 8.1 56% 76.84 0.0
03 09:35 S 19 G 26 16.09 Fair CLR 16.6 8.3 58% 76.84 0.0
03 09:15 S 20 16.09 Fair CLR 16 8.5 61% 76.84 0.0
03 08:55 S 15 16.09 Fair CLR 14.9 8.5 66% 76.84 0.0
03 08:35 S 11 16.09 Fair CLR 13.8 8.4 70% 76.84 0.0
03 08:15 S 7 16.09 Fair CLR 12.8 8 73% 76.81 0.0
03 07:35 S 9 16.09 Fair CLR 11.1 7.5 79% 76.78 0.0
03 07:15 SW 7 16.09 Fair CLR 10.7 7.5 81% 76.76 0.0
03 06:55 SW 11 16.09 Fair CLR 10.5 7.5 12.9 10.5 82% 76.73 0.0
03 06:35 SW 9 16.09 Fair CLR 10.5 7.6 82% 76.73 0.0
03 06:15 SW 7 16.09 Fair CLR 10.5 7.8 84% 76.73 0.0
03 05:55 SW 9 16.09 Fair CLR 10.5 7.8 84% 76.73 0.0
03 05:35 SW 7 16.09 Fair CLR 10.8 7.7 81% 76.73 0.0
03 05:15 SW 9 16.09 Fair CLR 11 7.6 80% 76.73 0.0
03 04:55 SW 7 16.09 Fair CLR 11 7.7 80% 76.76 0.0
03 04:35 SW 9 16.09 Fair CLR 11.3 7.8 79% 76.76 0.0
03 04:15 SW 9 16.09 Fair CLR 11.5 7.7 78% 76.76 0.0
03 03:55 SW 9 16.09 Fair CLR 11.5 7.8 78% 76.76 0.0
03 03:35 S 9 16.09 Fair CLR 11.7 7.7 77% 76.76 0.0
03 03:15 SW 7 16.09 Fair CLR 12 7.7 75% 76.78 0.0
03 02:55 SW 9 16.09 Fair CLR 12 7.8 76% 76.78 0.0
03 02:35 Calm 16.09 Fair CLR 12.1 7.9 76% 76.78 0.0
03 02:15 Calm 16.09 Fair CLR 12.3 8 75% 76.84 0.0
03 01:55 Calm 16.09 Fair CLR 12.5 7.8 73% 76.84 0.0
03 01:35 Calm 16.09 Fair CLR 12.5 7.8 73% 76.84 0.0
03 01:15 Calm 16.09 Fair CLR 12.8 7.5 70% 76.81 0.0
03 00:55 Calm 16.09 Fair CLR 12.7 7.6 18.7 12.7 71% 76.84 0.0
03 00:35 Calm 16.09 Fair CLR 13 7.6 70% 76.84 0.0
03 00:15 Calm 16.09 Fair CLR 13.1 7.6 70% 76.84 0.0
02 23:55 Calm 16.09 Fair CLR 13.8 7.3 65% 76.84 0.0
02 23:15 Calm 16.09 Fair CLR 13.5 8.2 71% 76.84 0.0
02 22:55 Calm 16.09 Fair CLR 13.5 8.2 71% 76.84 0.0
02 22:35 Calm 16.09 Fair CLR 14 8 67% 76.81 0.0
02 22:15 Calm 16.09 Fair CLR 14.2 7.9 66% 76.78 0.0
02 21:55 Calm 16.09 Partly Cloudy SCT120 14.6 7.8 64% 76.78 0.0
02 21:35 Calm 16.09 Fair CLR 15.1 7.4 60% 76.76 0.0
02 21:15 Calm 16.09 Fair CLR 15.6 7 57% 76.76 0.0
02 20:55 Calm 16.09 Partly Cloudy SCT065 SCT120 16.2 7.1 55% 76.76 0.0
02 20:35 Calm 16.09 Mostly Cloudy BKN120 16.9 7 52% 76.73 0.0
02 20:15 Calm 16.09 Overcast OVC120 17.7 6.3 47% 76.73 0.0
02 19:55 Calm 16.09 Overcast OVC120 18 4.9 42% 76.73 0.0
02 19:35 Calm 16.09 Overcast SCT060 OVC120 18.5 4.9 41% 76.73 0.0
02 19:15 Calm 16.09 Overcast OVC070 18.5 4.7 40% 76.73 0.0
02 18:35 S 9 16.09 Overcast OVC070 18.7 4.5 39% 76.73 0.0
02 18:15 Calm 16.09 Overcast OVC070 18.9 4.5 39% 76.73 0.0
02 17:55 S 7 16.09 Overcast OVC070 19.1 4.5 38% 76.73 0.0
02 17:35 Calm 16.09 Overcast SCT060 OVC070 18.8 4.2 38% 76.73 0.0
02 17:15 Calm 16.09 Overcast OVC070 18.8 4 38% 76.76 0.0
02 16:55 Calm 16.09 Overcast SCT060 OVC070 18.6 4.2 39% 76.76 0.0
02 16:35 Calm 16.09 Overcast OVC060 18.9 4.5 39% 76.78 0.0
02 16:15 SW 6 16.09 Mostly Cloudy BKN060 18.6 4.2 39% 76.81 0.0
02 15:35 Calm 16.09 Mostly Cloudy BKN055 18.7 4.9 40% 76.86 0.0
02 15:15 S 9 16.09 Mostly Cloudy BKN055 BKN065 18.4 4.5 40% 76.86 0.0
02 14:55 Calm 16.09 Overcast OVC065 18.4 4.7 41% 76.89 0.0
02 14:35 Calm 16.09 Overcast SCT055 OVC065 17.7 4 40% 76.89 0.0
02 14:15 Calm 16.09 Overcast OVC055 17.4 4.6 43% 76.89 0.0
02 13:35 Calm 16.09 Partly Cloudy SCT055 17.2 4.3 43% 76.94 0.0
02 13:15 Calm 16.09 Fair CLR 17.7 4.3 41% 76.94 0.0
02 12:55 N 6 16.09 Fair CLR 16.7 4.6 16.8 7.7 45% 76.96 0.0
02 12:35 Calm 16.09 Partly Cloudy SCT048 16.6 4 43% 76.96 0.0
02 12:15 Calm 16.09 Partly Cloudy SCT046 15.9 4.5 47% 76.96 0.0
02 11:55 Calm 16.09 Fair CLR 15.7 5 49% 76.99 0.0
02 11:35 Calm 16.09 Fair CLR 15.6 4.6 48% 76.99 0.0
02 11:15 Calm 16.09 Fair CLR 15.1 4.4 49% 76.99 0.0
02 10:55 SW 7 16.09 Fair CLR 15.1 4.5 49% 76.99 0.0
02 10:35 Calm 16.09 Fair CLR 14.3 4.7 53% 76.99 0.0
02 10:15 Calm 16.09 Fair CLR 14 4.7 54% 77.01 0.0
02 09:55 Calm 16.09 Fair CLR 13.3 5 57% 77.01 0.0
02 09:35 Calm 16.09 Fair CLR 12.6 4.9 60% 76.99 0.0
02 09:15 Calm 16.09 Fair CLR 11.5 5.9 69% 76.99 0.0
02 08:55 Calm 16.09 Fair CLR 10.3 7 80% 76.99 0.0
02 08:35 Calm 16.09 Partly Cloudy SCT070 9.3 7.1 86% 76.96 0.0
02 07:55 Calm 16.09 Overcast OVC070 8.2 6.9 92% 76.91 0.0
02 07:35 Calm 16.09 Overcast OVC070 8 7 93% 76.91 0.0
02 07:15 Calm 16.09 Mostly Cloudy BKN070 7.8 7 95% 76.89 0.0
02 06:55 Calm 16.09 Mostly Cloudy BKN070 7.7 7 9.6 7.6 95% 76.86 0.0
02 06:35 Calm 16.09 Partly Cloudy SCT070 7.7 7.2 97% 76.86 0.0
02 06:15 Calm 16.09 Mostly Cloudy BKN070 8 7.4 96% 76.86 0.0
02 05:55 Calm 16.09 Partly Cloudy SCT070 8 7.5 97% 76.86 0.0
02 05:35 Calm 16.09 Fair CLR 8.2 7.6 96% 76.84 0.0
02 05:15 Calm 16.09 Fair CLR 8.3 7.6 95% 76.84 0.0
02 04:55 Calm 16.09 Fair CLR 8.5 7.8 95% 76.84 0.0
02 04:35 Calm 16.09 Fair CLR 8.6 8 96% 76.81 0.0
02 04:15 Calm 16.09 Fair CLR 8.7 7.7 94% 76.78 0.0
02 03:55 Calm 16.09 Fair CLR 8.8 7.7 93% 76.78 0.0
02 03:35 Calm 16.09 Mostly Cloudy BKN095 9.1 8 93% 76.78 0.0
02 03:15 Calm 16.09 Overcast OVC095 9.5 8 90% 76.81 0.0
02 02:55 Calm 16.09 Overcast OVC095 9.3 8 92% 76.84 0.0
02 02:35 Calm 16.09 Overcast OVC085 9.5 8.1 91% 76.84 0.0
02 02:15 Calm 16.09 Overcast OVC075 9.3 8 92% 76.84 0.0
02 01:55 Calm 16.09 Overcast OVC090 9.3 8 92% 76.84 0.0
02 01:35 Calm 16.09 Mostly Cloudy BKN090 9.2 7.7 90% 76.84 0.0
02 01:15 Calm 16.09 Partly Cloudy SCT090 9.3 7.5 89% 76.84 0.0
02 00:55 Calm 16.09 Partly Cloudy SCT060 9.6 7.5 10.8 9 87% 76.84 0.0 0.05
02 00:35 Calm 16.09 Mostly Cloudy BKN060 10.3 8 86% 76.84 0.0
02 00:15 Calm 16.09 Overcast OVC060 10.6 8.7 88% 76.84 0.0
01 23:55 Calm 16.09 Overcast OVC060 10.7 9 89% 76.81 0.0
01 23:35 Calm 16.09 Overcast BKN060 OVC090 10.7 8.7 88% 76.78 0.0
01 23:15 Calm 16.09 Overcast OVC090 10.7 8.6 87% 76.78 0.0
01 22:55 Calm 16.09 Overcast OVC090 10.7 8.5 86% 76.73 0.0
01 22:35 Calm 16.09 Overcast OVC090 10.7 8.8 88% 76.73 0.0
01 22:15 Calm 16.09 Overcast OVC080 10.7 8.6 87% 76.73 0.0
01 21:55 Calm 16.09 Overcast BKN080 OVC090 10.7 8.6 87% 76.71 0.0 0.05
01 21:35 Calm 16.09 Overcast OVC080 10.7 8.3 85% 76.66 0.0
01 21:15 Calm 16.09 Overcast OVC080 10.6 8.1 85% 76.63 0.0
01 20:55 Calm 16.09 Overcast OVC070 10.5 7.8 84% 76.63 0.0 0.03
01 20:35 Calm 16.09 Overcast OVC070 10.5 7.6 82% 76.61 0.0 0.03
01 20:15 NE 7 16.09 Light Drizzle OVC070 10.5 7.7 83% 76.61 0.0 0.03
01 19:55 NE 7 16.09 Drizzle OVC070 10.2 8.6 90% 76.63 0.0 0.03
01 19:35 N 9 16.09 Drizzle SCT036 SCT060 OVC070 9.2 9.2 100% 8 76.63 0.0 0.03
01 19:15 N 15 16.09 Light Rain SCT038 OVC060 9.1 9.1 100% 7 76.61 0.0 0.03
01 18:55 N 13 16.09 Drizzle SCT038 OVC050 10 10 13.1 9.2 100% 8 76.61 0.0 0.08 0.08
01 18:35 N 13 16.09 Rain BKN048 OVC050 10.4 10.1 98% 76.58 0.0 0.05
01 18:15 N 11 16.09 Rain OVC046 11.6 8.8 83% 76.56 0.0 0.03
01 17:55 NE 17 16.09 Light Drizzle BKN044 OVC065 12 7.7 75% 76.53 0.0
01 17:35 NE 19 16.09 Light Drizzle BKN040 BKN050 OVC065 12 7.7 75% 76.5 0.0
01 17:15 NE 19 16.09 Light Rain BKN040 OVC065 12.3 7.3 72% 76.48 0.0
01 16:55 NE 22 16.09 Overcast SCT030 OVC039 12.7 6.4 66% 76.45 0.0
01 16:35 E 19 16.09 Overcast SCT024 OVC030 12.6 7.1 69% 76.45 0.0
01 16:15 E 24 G 31 16.09 Overcast BKN022 BKN030 OVC065 13 8.3 73% 76.45 0.0
01 15:55 E 20 16.09 Overcast BKN022 OVC065 12.7 8 73% 76.45 0.0
01 15:35 NE 22 G 33 16.09 Overcast SCT020 SCT025 OVC065 12.6 7.9 73% 76.45 0.0
01 15:15 E 30 G 39 16.09 Overcast OVC065 12.5 7.6 72% 76.45 0.0
01 14:55 E 26 G 35 16.09 Overcast OVC065 11.7 7.6 76% 76.48 0.0
01 14:35 E 26 G 33 16.09 Overcast SCT015 OVC065 11.6 8.3 80% 76.48 0.0
01 14:15 E 26 G 35 16.09 Overcast SCT013 OVC065 11.1 8.1 82% 76.45 0.0
01 13:55 E 28 G 39 16.09 Overcast BKN065 OVC085 10.9 8.8 87% 76.48 0.0
01 13:35 E 30 G 39 16.09 Overcast SCT026 SCT065 OVC085 9.8 8.2 90% 7 76.5 0.0
01 13:15 E 20 G 37 16.09 Light Rain SCT012 BKN036 OVC085 9.4 8.1 92% 7 76.5 0.0
01 12:55 E 20 G 30 11.27 Light Rain BKN011 BKN015 OVC035 9.5 8.7 11.2 8.3 95% 7 76.53 0.0 0.1 1.63
01 12:35 E 17 G 28 16.09 Rain OVC010 9.9 9.4 97% 8 76.56 0.0 0.05
01 12:15 E 17 G 30 16.09 Light Rain SCT010 BKN027 OVC060 9.5 8.6 94% 7 76.58 0.0 0.03
Date Time (cdt) Wind (kph) Vis. (km) Weather Sky Cond. Air Dwpt Max. Min. Relative Humidity Wind Chill (°C) Heat Index (°C) altimeter (cm) sea level (mb) 1 hr 3 hr 6 hr
6 hour
Temperature (ºC) Pressure Precipitation (cm)